• Join FlightAware (Why Join?)
  • Login
  • US Flag 
05:45AM EST


 

Airport Tracker/Info


-or-


 

Live Flight TrackerFlight Track Log ✈ AAY860 ✈ 23-Jun-2014 ✈ KPIE - KLEX

Flight Track Log - Related Links

Times and Time Zones

All times are in EDT time to prevent confusion due to time zone crossing. See the AAY860 flight status page for this flight to view local times or setup timezone preferences in your user account.

Time Position Orientation Groundspeed Altitude Reporting Facility
EDT Latitude Longitude Course Direction KTS MPH feet Rate Location/Type
06:30AM 27.9333 -82.6833 330° Northwest 157 181 800  Level Tampa TRACON
06:31AM 27.9833 -82.6667 16° North 216 249 2,500 1,860 Climbing Tampa TRACON
06:33AM 28.0667 -82.6667 360° North 286 329 4,900 2,280 Climbing Tampa TRACON
06:35AM 28.2333 -82.6758 357° North 307 353 9,900 2,040 Climbing Jacksonville Center
06:36AM 28.4860 -83.0458 330° Northwest  Level FlightAware Approximate
06:36AM 28.3231 -82.6922 351° North 314 361 11,400  Level Jacksonville Center
06:37AM 28.4231 -82.7156 348° North 339 390 13,800 2,340 Climbing Jacksonville Center
06:38AM 28.5150 -82.7628 336° Northwest 351 404 16,100 1,980 Climbing Jacksonville Center
06:39AM 28.5986 -82.8381 322° Northwest 362 417 17,800 1,140 Climbing Jacksonville Center
06:40AM 28.6819 -82.9139 321° Northwest 376 433 18,400 1,140 Climbing Jacksonville Center
06:41AM 28.7614 -82.9731 327° Northwest 381 438 20,100 1,620 Climbing Jacksonville Center
06:42AM 28.8572 -83.0467 326° Northwest 394 453 21,700 1,500 Climbing Jacksonville Center
06:43AM 28.9533 -83.1203 326° Northwest 407 468 23,100 1,380 Climbing Jacksonville Center
06:44AM 29.0492 -83.1942 326° Northwest 413 475 24,500 1,260 Climbing Jacksonville Center
06:45AM 29.1450 -83.2683 326° Northwest 424 488 25,700 1,200 Climbing Jacksonville Center
06:46AM 29.2489 -83.3494 326° Northwest 424 488 27,000 1,200 Climbing Jacksonville Center
06:47AM 29.3531 -83.4286 326° Northwest 430 495 28,100 1,020 Climbing Jacksonville Center
06:48AM 29.4656 -83.4864 336° Northwest 440 506 29,100 1,020 Climbing Jacksonville Center
06:49AM 29.5928 -83.5136 349° North 447 514 30,200 1,140 Climbing Jacksonville Center
06:50AM 29.7219 -83.5431 349° North 458 527 31,400 840 Climbing Jacksonville Center
06:51AM 29.8492 -83.5703 349° North 463 533 31,900 240 Climbing Jacksonville Center
06:52AM 29.9764 -83.5975 349° North 468 539 31,900 120 Level Jacksonville Center
06:53AM 30.1036 -83.6250 349° North 468 539 32,200 720 Climbing Jacksonville Center
06:54AM 30.2331 -83.6522 350° North 468 539 33,400 1,440 Climbing Jacksonville Center
06:55AM 30.3581 -83.6797 349° North 463 533 35,100 1,200 Climbing Jacksonville Center
06:56AM 30.4811 -83.7072 349° North 453 521 35,900 360 Climbing Jacksonville Center
06:57AM 30.5978 -83.7325 349° North 446 513 35,900  Level Jacksonville Center
06:58AM 30.7208 -83.7625 348° North 446 513 35,900  Level Jacksonville Center
06:59AM 30.8439 -83.7903 349° North 446 513 36,000  Climbing Jacksonville Center
07:00AM 30.9647 -83.8156 350° North 446 513 36,000 60 Level Jacksonville Center
07:01AM 31.0878 -83.8436 349° North 446 513 36,200 600 Climbing Jacksonville Center
07:03AM 31.3269 -83.9003 349° North 474 545 37,800 600 Climbing Atlanta Center
07:04AM 31.4461 -83.9294 348° North 448 516 38,000  Climbing Atlanta Center
07:05AM 31.5544 -83.9561 348° North 448 516 37,900  Descending Atlanta Center
07:06AM 31.6797 -83.9853 349° North 448 516 38,000  Climbing Atlanta Center
07:07AM 31.8050 -84.0144 349° North 448 516 37,900 -60 Descending Atlanta Center
07:08AM 31.9261 -84.0389 350° North 448 516 37,900  Level Atlanta Center
07:09AM 32.0514 -84.0683 349° North 448 516 38,000  Climbing Atlanta Center
07:10AM 32.1725 -84.0928 350° North 448 516 38,000 -60 Level Atlanta Center
07:11AM 32.2933 -84.1222 348° North 448 516 37,900 -60 Descending Atlanta Center
07:12AM 32.4125 -84.1494 349° North 448 516 37,900  Level Atlanta Center
07:13AM 32.5333 -84.1792 348° North 448 516 37,900  Level Atlanta Center
07:14AM 32.6567 -84.1844 358° North 443 510 38,000  Climbing Atlanta Center
07:15AM 32.7778 -84.1772 North 443 510 38,000 -60 Level Atlanta Center
07:16AM 32.8986 -84.1650 North 437 503 37,900 -60 Descending Atlanta Center
07:17AM 33.0197 -84.1553 North 437 503 37,900  Level Atlanta Center
07:18AM 33.1556 -84.1406 North 443 510 38,000  Climbing Atlanta Center
07:19AM 33.2786 -84.1308 North 443 510 38,000  Level Atlanta Center
07:20AM 33.3997 -84.1183 North 443 510 38,000  Level Atlanta Center
07:21AM 33.5250 -84.1086 North 443 510 38,000 -60 Level Atlanta Center
07:22AM 33.6439 -84.0961 North 438 504 37,900 -60 Descending Atlanta Center
07:23AM 33.7631 -84.0839 North 438 504 37,900  Level Atlanta Center
07:24AM 33.8861 -84.0739 North 438 504 37,900  Level Atlanta Center
07:25AM 34.0092 -84.0639 North 438 504 37,900  Level Atlanta Center
07:26AM 34.1283 -84.0539 North 438 504 38,000  Climbing Atlanta Center
07:27AM 34.2514 -84.0439 North 438 504 38,000  Level Atlanta Center
07:28AM 34.3725 -84.0336 North 438 504 38,000  Level Atlanta Center
07:29AM 34.4956 -84.0236 North 438 504 38,000  Level Atlanta Center
07:30AM 34.6144 -84.0136 North 438 504 38,000  Level Atlanta Center
07:31AM 34.7314 -84.0033 North 438 504 38,000  Level Atlanta Center
07:32AM 34.8525 -84.0033 360° North 433 498 38,000  Level Atlanta Center
07:33AM 34.9756 -84.0236 352° North 433 498 38,000  Level Atlanta Center
07:34AM 35.0944 -84.0389 354° North 438 504 38,000  Level Atlanta Center
07:35AM 35.2175 -84.0567 353° North 438 504 38,000 -120 Level Atlanta Center
07:36AM 35.3386 -84.0744 353° North 438 504 37,800 -600 Descending Atlanta Center
07:37AM 35.4575 -84.0897 354° North 438 504 36,900 -960 Descending Atlanta Center
07:38AM 35.5828 -84.1078 353° North 444 511 35,900 -1,020 Descending Atlanta Center
07:39AM 35.7058 -84.1283 352° North 444 511 34,900 -960 Descending Atlanta Center
07:40AM 35.8289 -84.1464 353° North 444 511 34,000 -1,020 Descending Atlanta Center
07:42AM 36.1222 -84.1886 353° North 446 513 31,600 -1,020 Descending Indianapolis Center
07:43AM 36.2444 -84.2067 353° North 446 513 30,600 -960 Descending Indianapolis Center
07:44AM 36.3653 -84.2253 353° North 445 512 29,700 -960 Descending Indianapolis Center
07:45AM 36.4856 -84.2442 353° North 440 506 28,700 -1,020 Descending Indianapolis Center
07:46AM 36.6072 -84.2625 353° North 433 498 27,700 -1,080 Descending Indianapolis Center
07:47AM 36.7422 -84.2825 353° North 422 486 26,600 -1,080 Descending Indianapolis Center
07:48AM 36.8569 -84.3006 353° North 416 479 25,600 -1,080 Descending Indianapolis Center
07:49AM 36.9711 -84.3178 353° North 415 478 24,400 -2,100 Descending Indianapolis Center
07:50AM 37.0844 -84.3344 353° North 411 473 21,300 -3,120 Descending Indianapolis Center
07:51AM 37.2011 -84.3525 353° North 415 478 18,100 -3,060 Descending Indianapolis Center
07:52AM 37.3181 -84.3714 353° North 418 481 15,100 -2,700 Descending Indianapolis Center
07:53AM 37.4322 -84.3883 353° North 417 480 12,600 -2,040 Descending Indianapolis Center
07:54AM 37.5375 -84.4056 353° North 390 449 11,000 -1,080 Descending Indianapolis Center
07:55AM 37.6436 -84.4222 353° North 337 388 10,400 -1,020 Descending Indianapolis Center
07:56AM 37.7275 -84.4347 353° North 308 354 9,000 -1,500 Descending Indianapolis Center
07:57AM 37.8086 -84.4525 350° North 299 344 7,400 -1,500 Descending Indianapolis Center
07:58AM 37.8828 -84.4872 340° North 288 331 6,000 -1,380 Descending Indianapolis Center
07:59AM 37.9553 -84.5150 343° North 277 319 4,600 -1,080 Descending Indianapolis Center
08:00AM 38.0242 -84.5117 North 254 292 3,800 -720 Descending Indianapolis Center
08:01AM 38.0786 -84.5039 North 224 258 3,200 -960 Descending Indianapolis Center
08:03AM 38.0761 -84.5583 267° West 164 189 1,900 -1,020 Descending Indianapolis Center
08:04AM 38.0508 -84.5889 224° Southwest 140 161 1,200 -420 Descending Indianapolis Center
08:05AM 38.0236 -84.6181 220° Southwest 138 159 1,100 -120 Descending Indianapolis Center